^^
Station Historical Data
Daily Summary for January 12, 2018 Units:  Both    English   Metric
« Previous Day
Next Day »
Daily Weekly Monthly Yearly Custom
  High: Low: Average:
Temperature: TemperatureF °F /  -17.8 °C 64.6 °F /  18.1 °C 74.6 °F /  23.7 °C
Dew Point: DewpointF °F /  -17.8 °C 43.9 °F /  6.6 °C 51.5 °F /  10.8 °C
Humidity: Humidity% 25% 46%
Wind Speed: WindSpeedMPHmph /  0km/h - 1.2mph /  1.9km/h
Wind Gust: WindSpeedGustMPHmph /  0km/h - -
Wind- - South
Pressure: PressureIn in /  0 hPa 29.65 in /  1003.9 hPa -
Precipitation: 0.30 in /  7.62 mm    
Historical Graphs
 
 
Tabular Data for January 12, 2018
Time Temperature Dew Point Pressure Wind Wind Speed Wind Gust Humidity Rainfall Rate (Hourly) solar Conditions
TemperatureF °F /  -17.8 °C DewpointF °F /  -17.8 °C PressureInin /  0hPa Calm     Humidity% HourlyPrecipInin /  0mm SolarRadiationWatts/m^2 W/m2 Conditions
00:00 76.5 °F /  24.7 °C 44.4 °F /  6.9 °C 29.72in /  1006.3hPa Calm     32% 0.00in /  0mm 0.0 W/m2
00:12 76.3 °F /  24.6 °C 45.1 °F /  7.3 °C 29.72in /  1006.3hPa Calm     33% 0.00in /  0mm 0.0 W/m2
00:17 76.1 °F /  24.5 °C 44.1 °F /  6.7 °C 29.72in /  1006.3hPa Calm     32% 0.00in /  0mm 0.0 W/m2
00:22 75.9 °F /  24.4 °C 43.9 °F /  6.6 °C 29.71in /  1006hPa Calm     32% 0.00in /  0mm 0.0 W/m2
00:27 75.9 °F /  24.4 °C 44.8 °F /  7.1 °C 29.72in /  1006.3hPa Calm     33% 0.00in /  0mm 0.0 W/m2
00:42 75.7 °F /  24.3 °C 44.6 °F /  7 °C 29.71in /  1006hPa Calm     33% 0.00in /  0mm 0.0 W/m2
00:47 75.7 °F /  24.3 °C 44.6 °F /  7 °C 29.71in /  1006hPa Calm   2.0mph /  3.2km/h 33% 0.00in /  0mm 0.0 W/m2
00:52 75.6 °F /  24.2 °C 44.4 °F /  6.9 °C 29.71in /  1006hPa Calm     33% 0.00in /  0mm 0.0 W/m2
00:55 75.6 °F /  24.2 °C 44.4 °F /  6.9 °C 29.71in /  1006hPa Calm   1.0mph /  1.6km/h 33% 0.00in /  0mm 0.0 W/m2
01:00 75.6 °F /  24.2 °C 44.4 °F /  6.9 °C 29.71in /  1006hPa Calm   1.0mph /  1.6km/h 33% 0.00in /  0mm 0.0 W/m2
01:08 75.6 °F /  24.2 °C 44.4 °F /  6.9 °C 29.71in /  1006hPa Calm   2.0mph /  3.2km/h 33% 0.00in /  0mm 0.0 W/m2
01:14 75.6 °F /  24.2 °C 44.4 °F /  6.9 °C 29.71in /  1006hPa Calm     33% 0.00in /  0mm 0.0 W/m2
01:20 75.6 °F /  24.2 °C 44.4 °F /  6.9 °C 29.70in /  1005.6hPa Calm     33% 0.00in /  0mm 0.0 W/m2
01:25 75.4 °F /  24.1 °C 45.1 °F /  7.3 °C 29.70in /  1005.6hPa Calm     34% 0.00in /  0mm 0.0 W/m2
01:30 75.2 °F /  24 °C 45.0 °F /  7.2 °C 29.70in /  1005.6hPa Calm   1.0mph /  1.6km/h 34% 0.00in /  0mm 0.0 W/m2
01:35 74.8 °F /  23.8 °C 45.3 °F /  7.4 °C 29.70in /  1005.6hPa Calm   1.0mph /  1.6km/h 35% 0.00in /  0mm 0.0 W/m2
01:44 74.3 °F /  23.5 °C 45.0 °F /  7.2 °C 29.70in /  1005.6hPa Calm   1.0mph /  1.6km/h 35% 0.00in /  0mm 0.0 W/m2
01:49 73.9 °F /  23.3 °C 45.3 °F /  7.4 °C 29.70in /  1005.6hPa ENE 0.9mph /  1.4km/h 2.0mph /  3.2km/h 36% 0.00in /  0mm 0.0 W/m2
01:54 73.8 °F /  23.2 °C 45.1 °F /  7.3 °C 29.70in /  1005.6hPa Calm     36% 0.00in /  0mm 0.0 W/m2
01:59 73.6 °F /  23.1 °C 45.0 °F /  7.2 °C 29.70in /  1005.6hPa Calm   1.0mph /  1.6km/h 36% 0.00in /  0mm 0.0 W/m2
02:05 73.2 °F /  22.9 °C 45.3 °F /  7.4 °C 29.70in /  1005.6hPa ENE 0.9mph /  1.4km/h 1.0mph /  1.6km/h 37% 0.00in /  0mm 0.0 W/m2
02:15 73.0 °F /  22.8 °C 44.4 °F /  6.9 °C 29.71in /  1006hPa NE 2.0mph /  3.2km/h 3.0mph /  4.8km/h 36% 0.00in /  0mm 0.0 W/m2
02:25 73.0 °F /  22.8 °C 44.4 °F /  6.9 °C 29.71in /  1006hPa NE 0.9mph /  1.4km/h 4.0mph /  6.4km/h 36% 0.00in /  0mm 0.0 W/m2
02:33 73.0 °F /  22.8 °C 44.4 °F /  6.9 °C 29.71in /  1006hPa Calm   2.0mph /  3.2km/h 36% 0.00in /  0mm 0.0 W/m2
02:36 72.9 °F /  22.7 °C 44.4 °F /  6.9 °C 29.71in /  1006hPa Calm   2.0mph /  3.2km/h 36% 0.00in /  0mm 0.0 W/m2
02:41 72.9 °F /  22.7 °C 44.4 °F /  6.9 °C 29.71in /  1006hPa SE 0.9mph /  1.4km/h 2.0mph /  3.2km/h 36% 0.00in /  0mm 0.0 W/m2
02:47 72.7 °F /  22.6 °C 44.2 °F /  6.8 °C 29.71in /  1006hPa Calm   1.0mph /  1.6km/h 36% 0.00in /  0mm 0.0 W/m2
02:52 72.7 °F /  22.6 °C 45.0 °F /  7.2 °C 29.71in /  1006hPa NE 0.9mph /  1.4km/h 2.0mph /  3.2km/h 37% 0.00in /  0mm 0.0 W/m2
02:57 72.5 °F /  22.5 °C 44.1 °F /  6.7 °C 29.70in /  1005.6hPa Calm   1.0mph /  1.6km/h 36% 0.00in /  0mm 0.0 W/m2
03:02 72.3 °F /  22.4 °C 44.6 °F /  7 °C 29.70in /  1005.6hPa Calm   1.0mph /  1.6km/h 37% 0.00in /  0mm 0.0 W/m2
03:07 72.1 °F /  22.3 °C 44.4 °F /  6.9 °C 29.70in /  1005.6hPa Calm     37% 0.00in /  0mm 0.0 W/m2
03:12 72.0 °F /  22.2 °C 44.2 °F /  6.8 °C 29.70in /  1005.6hPa Calm     37% 0.00in /  0mm 0.0 W/m2
03:17 71.8 °F /  22.1 °C 44.8 °F /  7.1 °C 29.70in /  1005.6hPa Calm     38% 0.00in /  0mm 0.0 W/m2
03:22 71.4 °F /  21.9 °C 44.4 °F /  6.9 °C 29.70in /  1005.6hPa Calm     38% 0.00in /  0mm 0.0 W/m2
03:27 71.1 °F /  21.7 °C 44.8 °F /  7.1 °C 29.70in /  1005.6hPa Calm   1.0mph /  1.6km/h 39% 0.00in /  0mm 0.0 W/m2
03:43 70.3 °F /  21.3 °C 44.2 °F /  6.8 °C 29.70in /  1005.6hPa East 0.9mph /  1.4km/h 2.0mph /  3.2km/h 39% 0.00in /  0mm 0.0 W/m2
03:48 70.0 °F /  21.1 °C 44.6 °F /  7 °C 29.70in /  1005.6hPa ENE 0.9mph /  1.4km/h 2.0mph /  3.2km/h 40% 0.00in /  0mm 0.0 W/m2
03:53 69.8 °F /  21 °C 44.4 °F /  6.9 °C 29.70in /  1005.6hPa Calm   2.0mph /  3.2km/h 40% 0.00in /  0mm 0.0 W/m2
03:59 69.6 °F /  20.9 °C 44.2 °F /  6.8 °C 29.70in /  1005.6hPa ENE 0.9mph /  1.4km/h 3.0mph /  4.8km/h 40% 0.00in /  0mm 0.0 W/m2
04:04 69.6 °F /  20.9 °C 44.2 °F /  6.8 °C 29.70in /  1005.6hPa Calm   4.0mph /  6.4km/h 40% 0.00in /  0mm 0.0 W/m2
04:09 69.4 °F /  20.8 °C 44.1 °F /  6.7 °C 29.70in /  1005.6hPa Calm   4.0mph /  6.4km/h 40% 0.00in /  0mm 0.0 W/m2
04:14 69.4 °F /  20.8 °C 44.8 °F /  7.1 °C 29.71in /  1006hPa NE 0.9mph /  1.4km/h 4.0mph /  6.4km/h 41% 0.00in /  0mm 0.0 W/m2
04:25 69.1 °F /  20.6 °C 44.4 °F /  6.9 °C 29.70in /  1005.6hPa Calm   2.0mph /  3.2km/h 41% 0.00in /  0mm 0.0 W/m2
04:31 68.7 °F /  20.4 °C 44.8 °F /  7.1 °C 29.70in /  1005.6hPa Calm   3.0mph /  4.8km/h 42% 0.00in /  0mm 0.0 W/m2
04:41 68.4 °F /  20.2 °C 44.4 °F /  6.9 °C 29.70in /  1005.6hPa Calm   1.0mph /  1.6km/h 42% 0.00in /  0mm 0.0 W/m2
04:46 68.2 °F /  20.1 °C 44.2 °F /  6.8 °C 29.70in /  1005.6hPa Calm     42% 0.00in /  0mm 0.0 W/m2
04:51 67.8 °F /  19.9 °C 44.4 °F /  6.9 °C 29.70in /  1005.6hPa Calm     43% 0.00in /  0mm 0.0 W/m2
04:56 67.6 °F /  19.8 °C 44.4 °F /  6.9 °C 29.70in /  1005.6hPa Calm   1.0mph /  1.6km/h 43% 0.00in /  0mm 0.0 W/m2
05:01 67.5 °F /  19.7 °C 44.2 °F /  6.8 °C 29.70in /  1005.6hPa ENE 0.9mph /  1.4km/h 1.0mph /  1.6km/h 43% 0.00in /  0mm 0.0 W/m2
05:06 67.3 °F /  19.6 °C 44.1 °F /  6.7 °C 29.70in /  1005.6hPa ENE 0.9mph /  1.4km/h 1.0mph /  1.6km/h 43% 0.00in /  0mm 0.0 W/m2
05:12 67.1 °F /  19.5 °C 44.4 °F /  6.9 °C 29.70in /  1005.6hPa ESE 0.9mph /  1.4km/h 1.0mph /  1.6km/h 44% 0.00in /  0mm 0.0 W/m2
05:17 66.9 °F /  19.4 °C 44.2 °F /  6.8 °C 29.71in /  1006hPa East 0.9mph /  1.4km/h 3.0mph /  4.8km/h 44% 0.00in /  0mm 0.0 W/m2
05:22 66.7 °F /  19.3 °C 44.8 °F /  7.1 °C 29.71in /  1006hPa Calm   2.0mph /  3.2km/h 45% 0.00in /  0mm 0.0 W/m2
05:32 66.6 °F /  19.2 °C 44.6 °F /  7 °C 29.71in /  1006hPa East 0.9mph /  1.4km/h 3.0mph /  4.8km/h 45% 0.00in /  0mm 0.0 W/m2
05:37 66.4 °F /  19.1 °C 45.0 °F /  7.2 °C 29.71in /  1006hPa Calm   1.0mph /  1.6km/h 46% 0.00in /  0mm 0.0 W/m2
05:42 66.4 °F /  19.1 °C 45.0 °F /  7.2 °C 29.71in /  1006hPa ENE 2.0mph /  3.2km/h 2.0mph /  3.2km/h 46% 0.00in /  0mm 0.0 W/m2
05:47 66.2 °F /  19 °C 44.8 °F /  7.1 °C 29.71in /  1006hPa Calm   2.0mph /  3.2km/h 46% 0.00in /  0mm 0.0 W/m2
05:52 66.0 °F /  18.9 °C 44.6 °F /  7 °C 29.72in /  1006.3hPa Calm     46% 0.00in /  0mm 0.0 W/m2
05:57 66.0 °F /  18.9 °C 44.6 °F /  7 °C 29.72in /  1006.3hPa Calm   1.0mph /  1.6km/h 46% 0.00in /  0mm 0.0 W/m2
06:03 66.0 °F /  18.9 °C 45.1 °F /  7.3 °C 29.72in /  1006.3hPa Calm   1.0mph /  1.6km/h 47% 0.00in /  0mm 0.0 W/m2
06:08 65.8 °F /  18.8 °C 45.0 °F /  7.2 °C 29.72in /  1006.3hPa East 2.0mph /  3.2km/h 2.0mph /  3.2km/h 47% 0.00in /  0mm 0.0 W/m2
06:13 65.7 °F /  18.7 °C 45.0 °F /  7.2 °C 29.72in /  1006.3hPa Calm   2.0mph /  3.2km/h 47% 0.00in /  0mm 0.0 W/m2
06:18 65.7 °F /  18.7 °C 45.0 °F /  7.2 °C 29.72in /  1006.3hPa East 2.0mph /  3.2km/h 5.0mph /  8km/h 47% 0.00in /  0mm 0.0 W/m2
06:23 65.7 °F /  18.7 °C 45.0 °F /  7.2 °C 29.73in /  1006.7hPa ENE 2.9mph /  4.7km/h 5.0mph /  8km/h 47% 0.00in /  0mm 5.0 W/m2
06:28 65.7 °F /  18.7 °C 45.0 °F /  7.2 °C 29.73in /  1006.7hPa NE 0.9mph /  1.4km/h 4.0mph /  6.4km/h 47% 0.00in /  0mm 7.0 W/m2
06:33 65.7 °F /  18.7 °C 45.0 °F /  7.2 °C 29.73in /  1006.7hPa ENE 2.0mph /  3.2km/h 4.0mph /  6.4km/h 47% 0.00in /  0mm 11.0 W/m2
06:38 65.7 °F /  18.7 °C 45.0 °F /  7.2 °C 29.73in /  1006.7hPa ENE 2.0mph /  3.2km/h 3.0mph /  4.8km/h 47% 0.00in /  0mm 12.0 W/m2
06:43 65.8 °F /  18.8 °C 45.0 °F /  7.2 °C 29.73in /  1006.7hPa East 2.9mph /  4.7km/h 3.0mph /  4.8km/h 47% 0.00in /  0mm 14.0 W/m2
06:48 65.8 °F /  18.8 °C 45.7 °F /  7.6 °C 29.73in /  1006.7hPa ENE 2.9mph /  4.7km/h 6.0mph /  9.7km/h 48% 0.00in /  0mm 16.0 W/m2
06:54 66.0 °F /  18.9 °C 45.1 °F /  7.3 °C 29.73in /  1006.7hPa Calm   3.0mph /  4.8km/h 47% 0.00in /  0mm 18.0 W/m2
06:59 66.2 °F /  19 °C 45.9 °F /  7.7 °C 29.74in /  1007hPa Calm   2.0mph /  3.2km/h 48% 0.00in /  0mm 19.0 W/m2
07:04 66.4 °F /  19.1 °C 45.5 °F /  7.5 °C 29.74in /  1007hPa Calm   3.0mph /  4.8km/h 47% 0.00in /  0mm 21.0 W/m2
07:09 66.6 °F /  19.2 °C 46.2 °F /  7.9 °C 29.74in /  1007hPa Calm   2.0mph /  3.2km/h 48% 0.00in /  0mm 23.0 W/m2
07:14 66.9 °F /  19.4 °C 46.6 °F /  8.1 °C 29.74in /  1007hPa Calm   3.0mph /  4.8km/h 48% 0.00in /  0mm 25.0 W/m2
07:19 67.5 °F /  19.7 °C 46.6 °F /  8.1 °C 29.75in /  1007.3hPa Calm   4.0mph /  6.4km/h 47% 0.00in /  0mm 26.0 W/m2
07:24 67.6 °F /  19.8 °C 46.0 °F /  7.8 °C 29.75in /  1007.3hPa Calm   2.0mph /  3.2km/h 46% 0.00in /  0mm 28.0 W/m2
07:29 68.2 °F /  20.1 °C 47.1 °F /  8.4 °C 29.75in /  1007.3hPa Calm   3.0mph /  4.8km/h 47% 0.00in /  0mm 28.0 W/m2
07:34 68.5 °F /  20.3 °C 47.5 °F /  8.6 °C 29.75in /  1007.3hPa East 0.9mph /  1.4km/h 3.0mph /  4.8km/h 47% 0.00in /  0mm 30.0 W/m2
07:39 68.9 °F /  20.5 °C 47.3 °F /  8.5 °C 29.75in /  1007.3hPa East 2.0mph /  3.2km/h 2.0mph /  3.2km/h 46% 0.00in /  0mm 32.0 W/m2
08:00 71.2 °F /  21.8 °C 47.7 °F /  8.7 °C 29.75in /  1007.3hPa Calm     43% 0.00in /  0mm 338.0 W/m2
08:05 72.9 °F /  22.7 °C 48.4 °F /  9.1 °C 29.75in /  1007.3hPa NNW 2.9mph /  4.7km/h 5.0mph /  8km/h 42% 0.00in /  0mm 367.0 W/m2
08:10 74.5 °F /  23.6 °C 47.8 °F /  8.8 °C 29.75in /  1007.3hPa NE 0.9mph /  1.4km/h 4.0mph /  6.4km/h 39% 0.00in /  0mm 388.0 W/m2
08:15 75.7 °F /  24.3 °C 48.4 °F /  9.1 °C 29.75in /  1007.3hPa Calm   3.0mph /  4.8km/h 38% 0.00in /  0mm 410.0 W/m2
08:20 77.0 °F /  25 °C 48.0 °F /  8.9 °C 29.75in /  1007.3hPa NNW 2.0mph /  3.2km/h 6.0mph /  9.7km/h 36% 0.00in /  0mm 429.0 W/m2
08:31 78.6 °F /  25.9 °C 49.5 °F /  9.7 °C 29.75in /  1007.3hPa Calm   4.0mph /  6.4km/h 36% 0.00in /  0mm 469.0 W/m2
08:36 79.3 °F /  26.3 °C 49.3 °F /  9.6 °C 29.75in /  1007.3hPa Calm   7.0mph /  11.3km/h 35% 0.00in /  0mm 489.0 W/m2
08:41 80.2 °F /  26.8 °C 50.2 °F /  10.1 °C 29.75in /  1007.3hPa NNE 6.0mph /  9.7km/h 9.0mph /  14.5km/h 35% 0.00in /  0mm 510.0 W/m2
08:52 81.0 °F /  27.2 °C 50.7 °F /  10.4 °C 29.75in /  1007.3hPa NW 6.9mph /  11.1km/h 7.0mph /  11.3km/h 35% 0.00in /  0mm 550.0 W/m2
09:08 81.3 °F /  27.4 °C 51.1 °F /  10.6 °C 29.74in /  1007hPa North 4.0mph /  6.4km/h 7.0mph /  11.3km/h 35% 0.00in /  0mm 608.0 W/m2
09:13 81.7 °F /  27.6 °C 51.4 °F /  10.8 °C 29.74in /  1007hPa NNW 4.0mph /  6.4km/h 9.0mph /  14.5km/h 35% 0.00in /  0mm 626.0 W/m2
09:18 81.9 °F /  27.7 °C 51.4 °F /  10.8 °C 29.73in /  1006.7hPa North 2.0mph /  3.2km/h 3.0mph /  4.8km/h 35% 0.00in /  0mm 649.0 W/m2
09:34 82.6 °F /  28.1 °C 51.4 °F /  10.8 °C 29.73in /  1006.7hPa North 0.9mph /  1.4km/h 7.0mph /  11.3km/h 34% 0.00in /  0mm 698.0 W/m2
09:39 82.9 °F /  28.3 °C 50.9 °F /  10.5 °C 29.73in /  1006.7hPa NNW 2.0mph /  3.2km/h 4.0mph /  6.4km/h 33% 0.00in /  0mm 712.0 W/m2
09:44 83.5 °F /  28.6 °C 51.4 °F /  10.8 °C 29.73in /  1006.7hPa NNW 6.0mph /  9.7km/h 8.0mph /  12.9km/h 33% 0.00in /  0mm 731.0 W/m2
09:54 84.2 °F /  29 °C 51.1 °F /  10.6 °C 29.73in /  1006.7hPa NNW 2.9mph /  4.7km/h 7.0mph /  11.3km/h 32% 0.00in /  0mm 765.0 W/m2
10:05 84.7 °F /  29.3 °C 51.6 °F /  10.9 °C 29.72in /  1006.3hPa Calm   5.0mph /  8km/h 32% 0.00in /  0mm 791.0 W/m2
10:10 84.7 °F /  29.3 °C 50.7 °F /  10.4 °C 29.72in /  1006.3hPa NNW 2.9mph /  4.7km/h 6.0mph /  9.7km/h 31% 0.00in /  0mm 807.0 W/m2
10:15 84.9 °F /  29.4 °C 50.9 °F /  10.5 °C 29.72in /  1006.3hPa NW 0.9mph /  1.4km/h 3.0mph /  4.8km/h 31% 0.00in /  0mm 823.0 W/m2
10:20 85.1 °F /  29.5 °C 51.1 °F /  10.6 °C 29.72in /  1006.3hPa NW 4.9mph /  7.9km/h 7.0mph /  11.3km/h 31% 0.00in /  0mm 838.0 W/m2
10:25 85.3 °F /  29.6 °C 51.3 °F /  10.7 °C 29.72in /  1006.3hPa North 4.9mph /  7.9km/h 10.0mph /  16.1km/h 31% 0.00in /  0mm 847.0 W/m2
10:30 85.6 °F /  29.8 °C 51.6 °F /  10.9 °C 29.72in /  1006.3hPa NW 4.9mph /  7.9km/h 7.0mph /  11.3km/h 31% 0.00in /  0mm 858.0 W/m2
10:35 86.2 °F /  30.1 °C 52.9 °F /  11.6 °C 29.72in /  1006.3hPa WNW 0.9mph /  1.4km/h 3.0mph /  4.8km/h 32% 0.00in /  0mm 875.0 W/m2
10:40 86.5 °F /  30.3 °C 51.4 °F /  10.8 °C 29.72in /  1006.3hPa WSW 0.9mph /  1.4km/h 12.0mph /  19.3km/h 30% 0.00in /  0mm 886.0 W/m2
10:45 86.5 °F /  30.3 °C 51.4 °F /  10.8 °C 29.72in /  1006.3hPa Calm   7.0mph /  11.3km/h 30% 0.00in /  0mm 911.0 W/m2
10:56 86.7 °F /  30.4 °C 52.5 °F /  11.4 °C 29.71in /  1006hPa NNE 4.0mph /  6.4km/h 8.0mph /  12.9km/h 31% 0.00in /  0mm 937.0 W/m2
11:17 86.7 °F /  30.4 °C 52.5 °F /  11.4 °C 29.71in /  1006hPa NNW 4.9mph /  7.9km/h 9.0mph /  14.5km/h 31% 0.00in /  0mm 1078.0 W/m2
11:22 86.5 °F /  30.3 °C 51.4 °F /  10.8 °C 29.71in /  1006hPa NE 2.9mph /  4.7km/h 8.0mph /  12.9km/h 30% 0.00in /  0mm 237.0 W/m2
11:32 86.5 °F /  30.3 °C 52.3 °F /  11.3 °C 29.71in /  1006hPa Calm   2.0mph /  3.2km/h 31% 0.00in /  0mm 197.0 W/m2
11:39 86.2 °F /  30.1 °C 52.0 °F /  11.1 °C 29.71in /  1006hPa North 4.0mph /  6.4km/h 10.0mph /  16.1km/h 31% 0.00in /  0mm 246.0 W/m2
11:44 86.2 °F /  30.1 °C 52.0 °F /  11.1 °C 29.71in /  1006hPa West 2.0mph /  3.2km/h 5.0mph /  8km/h 31% 0.00in /  0mm 1206.0 W/m2
11:50 86.4 °F /  30.2 °C 52.2 °F /  11.2 °C 29.71in /  1006hPa Calm   5.0mph /  8km/h 31% 0.00in /  0mm 1236.0 W/m2
11:55 86.7 °F /  30.4 °C 51.6 °F /  10.9 °C 29.71in /  1006hPa WNW 0.9mph /  1.4km/h 4.0mph /  6.4km/h 30% 0.00in /  0mm 258.0 W/m2
12:00 87.3 °F /  30.7 °C 52.0 °F /  11.1 °C 29.70in /  1005.6hPa West 2.9mph /  4.7km/h 7.0mph /  11.3km/h 30% 0.00in /  0mm 1229.0 W/m2
12:05 88.0 °F /  31.1 °C 51.8 °F /  11 °C 29.70in /  1005.6hPa West 0.9mph /  1.4km/h 6.0mph /  9.7km/h 29% 0.00in /  0mm 1188.0 W/m2
12:10 88.2 °F /  31.2 °C 50.0 °F /  10 °C 29.70in /  1005.6hPa ENE 0.9mph /  1.4km/h 6.0mph /  9.7km/h 27% 0.00in /  0mm 1188.0 W/m2
12:24 86.9 °F /  30.5 °C 46.8 °F /  8.2 °C 29.70in /  1005.6hPa NE 0.9mph /  1.4km/h 6.0mph /  9.7km/h 25% 0.00in /  0mm 186.0 W/m2
12:29 86.5 °F /  30.3 °C 47.7 °F /  8.7 °C 29.69in /  1005.3hPa NE 2.0mph /  3.2km/h 10.0mph /  16.1km/h 26% 0.00in /  0mm 204.0 W/m2
12:35 86.4 °F /  30.2 °C 47.5 °F /  8.6 °C 29.69in /  1005.3hPa NNE 0.9mph /  1.4km/h 2.0mph /  3.2km/h 26% 0.00in /  0mm 308.0 W/m2
12:44 86.5 °F /  30.3 °C 46.6 °F /  8.1 °C 29.69in /  1005.3hPa NE 2.0mph /  3.2km/h 8.0mph /  12.9km/h 25% 0.00in /  0mm 304.0 W/m2
12:49 86.9 °F /  30.5 °C 46.8 °F /  8.2 °C 29.68in /  1005hPa South 0.9mph /  1.4km/h 5.0mph /  8km/h 25% 0.00in /  0mm 417.0 W/m2
12:54 87.3 °F /  30.7 °C 48.2 °F /  9 °C 29.69in /  1005.3hPa SSE 2.0mph /  3.2km/h 11.0mph /  17.7km/h 26% 0.00in /  0mm 265.0 W/m2
13:00 87.3 °F /  30.7 °C 48.2 °F /  9 °C 29.68in /  1005hPa SE 0.9mph /  1.4km/h 8.0mph /  12.9km/h 26% 0.00in /  0mm 225.0 W/m2
13:05 86.7 °F /  30.4 °C 47.7 °F /  8.7 °C 29.68in /  1005hPa NNE 2.9mph /  4.7km/h 5.0mph /  8km/h 26% 0.00in /  0mm 229.0 W/m2
13:10 86.5 °F /  30.3 °C 46.6 °F /  8.1 °C 29.68in /  1005hPa ENE 0.9mph /  1.4km/h 5.0mph /  8km/h 25% 0.00in /  0mm 207.0 W/m2
13:15 86.5 °F /  30.3 °C 47.7 °F /  8.7 °C 29.68in /  1005hPa SSE 0.9mph /  1.4km/h 3.0mph /  4.8km/h 26% 0.00in /  0mm 322.0 W/m2
13:21 86.4 °F /  30.2 °C 50.4 °F /  10.2 °C 29.68in /  1005hPa WNW 4.9mph /  7.9km/h 8.0mph /  12.9km/h 29% 0.00in /  0mm 278.0 W/m2
13:26 85.5 °F /  29.7 °C 50.5 °F /  10.3 °C 29.68in /  1005hPa WSW 6.9mph /  11.1km/h 9.0mph /  14.5km/h 30% 0.00in /  0mm 373.0 W/m2
13:31 84.6 °F /  29.2 °C 52.3 °F /  11.3 °C 29.67in /  1004.6hPa Calm   10.0mph /  16.1km/h 33% 0.00in /  0mm 244.0 W/m2
13:36 84.6 °F /  29.2 °C 52.3 °F /  11.3 °C 29.67in /  1004.6hPa WSW 6.9mph /  11.1km/h 10.0mph /  16.1km/h 33% 0.00in /  0mm 1206.0 W/m2
13:41 84.9 °F /  29.4 °C 52.5 °F /  11.4 °C 29.67in /  1004.6hPa WSW 4.0mph /  6.4km/h 8.0mph /  12.9km/h 33% 0.00in /  0mm 1206.0 W/m2
13:46 84.6 °F /  29.2 °C 51.4 °F /  10.8 °C 29.66in /  1004.3hPa SW 6.0mph /  9.7km/h 15.0mph /  24.1km/h 32% 0.00in /  0mm 276.0 W/m2
13:51 83.7 °F /  28.7 °C 51.4 °F /  10.8 °C 29.67in /  1004.6hPa WNW 0.9mph /  1.4km/h 10.0mph /  16.1km/h 33% 0.00in /  0mm 193.0 W/m2
13:56 83.1 °F /  28.4 °C 51.8 °F /  11 °C 29.67in /  1004.6hPa NW 2.0mph /  3.2km/h 4.0mph /  6.4km/h 34% 0.00in /  0mm 169.0 W/m2
14:01 82.8 °F /  28.2 °C 51.4 °F /  10.8 °C 29.68in /  1005hPa SW 2.0mph /  3.2km/h 5.0mph /  8km/h 34% 0.00in /  0mm 149.0 W/m2
14:07 82.2 °F /  27.9 °C 51.1 °F /  10.6 °C 29.68in /  1005hPa WNW 0.9mph /  1.4km/h 5.0mph /  8km/h 34% 0.00in /  0mm 137.0 W/m2
14:12 81.7 °F /  27.6 °C 51.4 °F /  10.8 °C 29.69in /  1005.3hPa West 0.9mph /  1.4km/h 3.0mph /  4.8km/h 35% 0.00in /  0mm 156.0 W/m2
14:17 81.3 °F /  27.4 °C 51.8 °F /  11 °C 29.68in /  1005hPa WNW 4.9mph /  7.9km/h 10.0mph /  16.1km/h 36% 0.00in /  0mm 216.0 W/m2
14:22 80.8 °F /  27.1 °C 52.9 °F /  11.6 °C 29.68in /  1005hPa NNW 0.9mph /  1.4km/h 6.0mph /  9.7km/h 38% 0.00in /  0mm 258.0 W/m2
14:27 80.4 °F /  26.9 °C 51.8 °F /  11 °C 29.68in /  1005hPa NNW 6.0mph /  9.7km/h 10.0mph /  16.1km/h 37% 0.00in /  0mm 278.0 W/m2
14:32 80.2 °F /  26.8 °C 51.6 °F /  10.9 °C 29.68in /  1005hPa WNW 0.9mph /  1.4km/h 3.0mph /  4.8km/h 37% 0.00in /  0mm 480.0 W/m2
14:37 80.4 °F /  26.9 °C 51.8 °F /  11 °C 29.68in /  1005hPa NW 2.0mph /  3.2km/h 9.0mph /  14.5km/h 37% 0.00in /  0mm 355.0 W/m2
14:42 80.8 °F /  27.1 °C 53.6 °F /  12 °C 29.67in /  1004.6hPa WSW 6.9mph /  11.1km/h 7.0mph /  11.3km/h 39% 0.00in /  0mm 1164.0 W/m2
14:47 81.1 °F /  27.3 °C 53.8 °F /  12.1 °C 29.68in /  1005hPa WSW 4.0mph /  6.4km/h 5.0mph /  8km/h 39% 0.00in /  0mm 213.0 W/m2
14:52 81.0 °F /  27.2 °C 53.6 °F /  12 °C 29.69in /  1005.3hPa SW 4.0mph /  6.4km/h 4.0mph /  6.4km/h 39% 0.00in /  0mm 79.0 W/m2
14:58 79.7 °F /  26.5 °C 56.5 °F /  13.6 °C 29.70in /  1005.6hPa South 2.9mph /  4.7km/h 9.0mph /  14.5km/h 45% 0.00in /  0mm 53.0 W/m2
15:03 78.3 °F /  25.7 °C 61.7 °F /  16.5 °C 29.70in /  1005.6hPa Calm   3.0mph /  4.8km/h 57% 0.04in /  1.02mm 51.0 W/m2
15:08 75.7 °F /  24.3 °C 62.2 °F /  16.8 °C 29.70in /  1005.6hPa Calm   1.0mph /  1.6km/h 63% 0.14in /  3.56mm 69.0 W/m2
15:13 73.2 °F /  22.9 °C 62.4 °F /  16.9 °C 29.69in /  1005.3hPa NNW 2.0mph /  3.2km/h 3.0mph /  4.8km/h 69% 0.15in /  3.81mm 100.0 W/m2
15:18 71.6 °F /  22 °C 63.3 °F /  17.4 °C 29.69in /  1005.3hPa Calm   2.0mph /  3.2km/h 75% 0.16in /  4.06mm 153.0 W/m2
15:26 70.3 °F /  21.3 °C 64.2 °F /  17.9 °C 29.68in /  1005hPa Calm   3.0mph /  4.8km/h 81% 0.16in /  4.06mm 283.0 W/m2
15:31 70.2 °F /  21.2 °C 64.4 °F /  18 °C 29.67in /  1004.6hPa NNW 2.0mph /  3.2km/h 6.0mph /  9.7km/h 82% 0.16in /  4.06mm 251.0 W/m2
15:36 70.2 °F /  21.2 °C 63.0 °F /  17.2 °C 29.67in /  1004.6hPa WNW 2.0mph /  3.2km/h 7.0mph /  11.3km/h 78% 0.16in /  4.06mm 279.0 W/m2
15:42 70.5 °F /  21.4 °C 63.0 °F /  17.2 °C 29.67in /  1004.6hPa NNW 2.0mph /  3.2km/h 3.0mph /  4.8km/h 77% 0.16in /  4.06mm 809.0 W/m2
15:47 71.6 °F /  22 °C 63.0 °F /  17.2 °C 29.67in /  1004.6hPa WSW 4.9mph /  7.9km/h 8.0mph /  12.9km/h 74% 0.16in /  4.06mm 935.0 W/m2
15:52 72.9 °F /  22.7 °C 60.8 °F /  16 °C 29.67in /  1004.6hPa WSW 2.9mph /  4.7km/h 7.0mph /  11.3km/h 66% 0.16in /  4.06mm 946.0 W/m2
15:57 73.8 °F /  23.2 °C 61.3 °F /  16.3 °C 29.67in /  1004.6hPa West 2.0mph /  3.2km/h 6.0mph /  9.7km/h 65% 0.16in /  4.06mm 939.0 W/m2
16:04 74.7 °F /  23.7 °C 58.5 °F /  14.7 °C 29.67in /  1004.6hPa West 2.9mph /  4.7km/h 9.0mph /  14.5km/h 57% 0.06in /  1.52mm 954.0 W/m2
16:09 74.8 °F /  23.8 °C 58.1 °F /  14.5 °C 29.67in /  1004.6hPa West 4.9mph /  7.9km/h 5.0mph /  8km/h 56% 0.01in /  0.25mm 207.0 W/m2
16:14 74.7 °F /  23.7 °C 56.8 °F /  13.8 °C 29.68in /  1005hPa SW 2.0mph /  3.2km/h 3.0mph /  4.8km/h 54% 0.01in /  0.25mm 93.0 W/m2
16:19 74.5 °F /  23.6 °C 60.1 °F /  15.6 °C 29.69in /  1005.3hPa Calm   2.0mph /  3.2km/h 61% 0.00in /  0mm 58.0 W/m2
16:25 73.8 °F /  23.2 °C 63.3 °F /  17.4 °C 29.67in /  1004.6hPa Calm   1.0mph /  1.6km/h 70% 0.12in /  3.05mm 74.0 W/m2
16:31 72.3 °F /  22.4 °C 62.8 °F /  17.1 °C 29.66in /  1004.3hPa Calm   1.0mph /  1.6km/h 72% 0.12in /  3.05mm 81.0 W/m2
16:36 71.1 °F /  21.7 °C 61.9 °F /  16.6 °C 29.66in /  1004.3hPa Calm     73% 0.12in /  3.05mm 95.0 W/m2
16:41 70.3 °F /  21.3 °C 64.6 °F /  18.1 °C 29.66in /  1004.3hPa Calm   2.0mph /  3.2km/h 82% 0.12in /  3.05mm 262.0 W/m2
16:46 70.3 °F /  21.3 °C 64.6 °F /  18.1 °C 29.65in /  1003.9hPa Calm   1.0mph /  1.6km/h 82% 0.12in /  3.05mm 573.0 W/m2
16:51 71.1 °F /  21.7 °C 64.6 °F /  18.1 °C 29.65in /  1003.9hPa Calm   2.0mph /  3.2km/h 80% 0.12in /  3.05mm 571.0 W/m2
16:56 71.8 °F /  22.1 °C 64.2 °F /  17.9 °C 29.66in /  1004.3hPa Calm   3.0mph /  4.8km/h 77% 0.12in /  3.05mm 503.0 W/m2
17:06 72.0 °F /  22.2 °C 61.2 °F /  16.2 °C 29.66in /  1004.3hPa NNW 0.9mph /  1.4km/h 3.0mph /  4.8km/h 69% 0.12in /  3.05mm 601.0 W/m2
17:12 72.0 °F /  22.2 °C 61.7 °F /  16.5 °C 29.66in /  1004.3hPa Calm   1.0mph /  1.6km/h 70% 0.12in /  3.05mm 146.0 W/m2
17:17 72.0 °F /  22.2 °C 61.7 °F /  16.5 °C 29.66in /  1004.3hPa Calm     70% 0.13in /  3.3mm 97.0 W/m2
17:22 72.0 °F /  22.2 °C 62.4 °F /  16.9 °C 29.66in /  1004.3hPa Calm     72% 0.08in /  2.03mm 185.0 W/m2
17:27 72.0 °F /  22.2 °C 62.1 °F /  16.7 °C 29.66in /  1004.3hPa Calm     71% 0.01in /  0.25mm 471.0 W/m2
17:32 72.0 °F /  22.2 °C 60.4 °F /  15.8 °C 29.66in /  1004.3hPa Calm   4.0mph /  6.4km/h 67% 0.01in /  0.25mm 271.0 W/m2
17:37 72.3 °F /  22.4 °C 60.8 °F /  16 °C 29.66in /  1004.3hPa Calm   1.0mph /  1.6km/h 67% 0.01in /  0.25mm 563.0 W/m2
17:42 72.9 °F /  22.7 °C 59.9 °F /  15.5 °C 29.66in /  1004.3hPa Calm   1.0mph /  1.6km/h 64% 0.01in /  0.25mm 367.0 W/m2
17:52 73.0 °F /  22.8 °C 59.2 °F /  15.1 °C 29.66in /  1004.3hPa WSW 0.9mph /  1.4km/h 2.0mph /  3.2km/h 62% 0.01in /  0.25mm 69.0 W/m2
17:57 72.9 °F /  22.7 °C 59.5 °F /  15.3 °C 29.66in /  1004.3hPa Calm   3.0mph /  4.8km/h 63% 0.01in /  0.25mm 54.0 W/m2
18:03 72.9 °F /  22.7 °C 60.4 °F /  15.8 °C 29.67in /  1004.6hPa WSW 0.9mph /  1.4km/h 2.0mph /  3.2km/h 65% 0.01in /  0.25mm 47.0 W/m2
18:09 73.2 °F /  22.9 °C 59.4 °F /  15.2 °C 29.66in /  1004.3hPa SW 2.9mph /  4.7km/h 4.0mph /  6.4km/h 62% 0.01in /  0.25mm 107.0 W/m2
18:14 73.9 °F /  23.3 °C 60.1 °F /  15.6 °C 29.67in /  1004.6hPa Calm   3.0mph /  4.8km/h 62% 0.00in /  0mm 281.0 W/m2
18:20 75.0 °F /  23.9 °C 58.3 °F /  14.6 °C 29.67in /  1004.6hPa Calm   3.0mph /  4.8km/h 56% 0.00in /  0mm 269.0 W/m2
18:25 75.9 °F /  24.4 °C 57.6 °F /  14.2 °C 29.67in /  1004.6hPa SSW 2.0mph /  3.2km/h 3.0mph /  4.8km/h 53% 0.00in /  0mm 255.0 W/m2
18:30 76.6 °F /  24.8 °C 57.2 °F /  14 °C 29.67in /  1004.6hPa Calm   2.0mph /  3.2km/h 51% 0.00in /  0mm 237.0 W/m2
18:35 77.5 °F /  25.3 °C 55.8 °F /  13.2 °C 29.68in /  1005hPa Calm   2.0mph /  3.2km/h 47% 0.00in /  0mm 234.0 W/m2
18:40 78.1 °F /  25.6 °C 55.6 °F /  13.1 °C 29.68in /  1005hPa WSW 2.9mph /  4.7km/h 3.0mph /  4.8km/h 46% 0.00in /  0mm 214.0 W/m2
18:45 78.1 °F /  25.6 °C 55.0 °F /  12.8 °C 29.68in /  1005hPa West 4.9mph /  7.9km/h 5.0mph /  8km/h 45% 0.00in /  0mm 162.0 W/m2
18:50 77.7 °F /  25.4 °C 54.1 °F /  12.3 °C 29.68in /  1005hPa Calm   1.0mph /  1.6km/h 44% 0.00in /  0mm 90.0 W/m2
18:56 77.7 °F /  25.4 °C 56.5 °F /  13.6 °C 29.68in /  1005hPa West 0.9mph /  1.4km/h 1.0mph /  1.6km/h 48% 0.00in /  0mm 46.0 W/m2
19:01 77.7 °F /  25.4 °C 55.2 °F /  12.9 °C 29.68in /  1005hPa Calm     46% 0.00in /  0mm 40.0 W/m2
19:10 77.4 °F /  25.2 °C 55.0 °F /  12.8 °C 29.69in /  1005.3hPa NNW 2.0mph /  3.2km/h 4.0mph /  6.4km/h 46% 0.00in /  0mm 42.0 W/m2
19:17 77.0 °F /  25 °C 54.7 °F /  12.6 °C 29.70in /  1005.6hPa NNW 0.9mph /  1.4km/h 3.0mph /  4.8km/h 46% 0.00in /  0mm 32.0 W/m2
19:22 76.8 °F /  24.9 °C 54.5 °F /  12.5 °C 29.71in /  1006hPa Calm   3.0mph /  4.8km/h 46% 0.00in /  0mm 14.0 W/m2
19:27 76.6 °F /  24.8 °C 55.4 °F /  13 °C 29.71in /  1006hPa Calm   1.0mph /  1.6km/h 48% 0.00in /  0mm 7.0 W/m2
19:32 76.5 °F /  24.7 °C 55.4 °F /  13 °C 29.71in /  1006hPa Calm     48% 0.00in /  0mm 5.0 W/m2
19:37 76.1 °F /  24.5 °C 55.6 °F /  13.1 °C 29.70in /  1005.6hPa Calm     49% 0.00in /  0mm 5.0 W/m2
19:43 75.7 °F /  24.3 °C 55.8 °F /  13.2 °C 29.70in /  1005.6hPa Calm     50% 0.00in /  0mm 0.0 W/m2
19:48 75.4 °F /  24.1 °C 54.3 °F /  12.4 °C 29.71in /  1006hPa Calm   2.0mph /  3.2km/h 48% 0.00in /  0mm 0.0 W/m2
19:53 75.0 °F /  23.9 °C 54.0 °F /  12.2 °C 29.72in /  1006.3hPa Calm     48% 0.00in /  0mm 0.0 W/m2
19:58 74.8 °F /  23.8 °C 55.0 °F /  12.8 °C 29.73in /  1006.7hPa Calm     50% 0.00in /  0mm 0.0 W/m2
20:03 74.7 °F /  23.7 °C 55.9 °F /  13.3 °C 29.73in /  1006.7hPa Calm     52% 0.00in /  0mm 0.0 W/m2
20:08 74.5 °F /  23.6 °C 56.7 °F /  13.7 °C 29.73in /  1006.7hPa West 0.9mph /  1.4km/h 1.0mph /  1.6km/h 54% 0.00in /  0mm 0.0 W/m2
20:26 73.6 °F /  23.1 °C 55.9 °F /  13.3 °C 29.73in /  1006.7hPa Calm   1.0mph /  1.6km/h 54% 0.00in /  0mm 0.0 W/m2
20:33 73.4 °F /  23 °C 55.8 °F /  13.2 °C 29.74in /  1007hPa Calm     54% 0.00in /  0mm 0.0 W/m2
20:38 73.0 °F /  22.8 °C 54.9 °F /  12.7 °C 29.74in /  1007hPa Calm   1.0mph /  1.6km/h 53% 0.00in /  0mm 0.0 W/m2
20:43 72.9 °F /  22.7 °C 55.8 °F /  13.2 °C 29.74in /  1007hPa Calm     55% 0.00in /  0mm 0.0 W/m2
20:48 72.7 °F /  22.6 °C 56.5 °F /  13.6 °C 29.74in /  1007hPa Calm     57% 0.00in /  0mm 0.0 W/m2
20:53 72.3 °F /  22.4 °C 56.7 °F /  13.7 °C 29.74in /  1007hPa Calm     58% 0.00in /  0mm 0.0 W/m2
20:58 72.1 °F /  22.3 °C 56.5 °F /  13.6 °C 29.73in /  1006.7hPa Calm     58% 0.00in /  0mm 0.0 W/m2
21:04 72.0 °F /  22.2 °C 56.8 °F /  13.8 °C 29.73in /  1006.7hPa Calm   2.0mph /  3.2km/h 59% 0.00in /  0mm 0.0 W/m2
21:09 71.8 °F /  22.1 °C 57.2 °F /  14 °C 29.74in /  1007hPa Calm     60% 0.00in /  0mm 0.0 W/m2
21:14 71.4 °F /  21.9 °C 57.2 °F /  14 °C 29.74in /  1007hPa Calm     61% 0.00in /  0mm 0.0 W/m2
21:19 71.2 °F /  21.8 °C 57.0 °F /  13.9 °C 29.74in /  1007hPa Calm   1.0mph /  1.6km/h 61% 0.00in /  0mm 0.0 W/m2
21:24 71.1 °F /  21.7 °C 57.4 °F /  14.1 °C 29.74in /  1007hPa Calm     62% 0.00in /  0mm 0.0 W/m2
21:29 70.9 °F /  21.6 °C 57.2 °F /  14 °C 29.75in /  1007.3hPa Calm     62% 0.00in /  0mm 0.0 W/m2
21:34 70.3 °F /  21.3 °C 57.6 °F /  14.2 °C 29.75in /  1007.3hPa Calm   1.0mph /  1.6km/h 64% 0.00in /  0mm 0.0 W/m2
21:39 70.2 °F /  21.2 °C 57.4 °F /  14.1 °C 29.76in /  1007.7hPa Calm     64% 0.00in /  0mm 0.0 W/m2
21:44 70.2 °F /  21.2 °C 59.2 °F /  15.1 °C 29.76in /  1007.7hPa SSE 3.0mph /  4.8km/h 3.0mph /  4.8km/h 68% 0.00in /  0mm 0.0 W/m2
21:49 70.0 °F /  21.1 °C 59.0 °F /  15 °C 29.76in /  1007.7hPa SE 2.0mph /  3.2km/h 4.0mph /  6.4km/h 68% 0.00in /  0mm 0.0 W/m2
21:55 70.0 °F /  21.1 °C 59.7 °F /  15.4 °C 29.76in /  1007.7hPa Calm   2.0mph /  3.2km/h 70% 0.00in /  0mm 0.0 W/m2
22:00 70.2 °F /  21.2 °C 59.2 °F /  15.1 °C 29.76in /  1007.7hPa NNE 6.0mph /  9.7km/h 6.0mph /  9.7km/h 68% 0.00in /  0mm 0.0 W/m2
22:05 70.2 °F /  21.2 °C 56.5 °F /  13.6 °C 29.76in /  1007.7hPa NE 0.9mph /  1.4km/h 5.0mph /  8km/h 62% 0.00in /  0mm 0.0 W/m2
22:10 70.5 °F /  21.4 °C 56.5 °F /  13.6 °C 29.77in /  1008hPa Calm     61% 0.00in /  0mm 0.0 W/m2
22:18 70.5 °F /  21.4 °C 58.6 °F /  14.8 °C 29.78in /  1008.4hPa Calm   3.0mph /  4.8km/h 66% 0.00in /  0mm 0.0 W/m2
22:23 70.5 °F /  21.4 °C 58.1 °F /  14.5 °C 29.79in /  1008.7hPa SE 2.0mph /  3.2km/h 4.0mph /  6.4km/h 65% 0.00in /  0mm 0.0 W/m2
22:28 70.3 °F /  21.3 °C 57.2 °F /  14 °C 29.80in /  1009hPa South 2.0mph /  3.2km/h 6.0mph /  9.7km/h 63% 0.00in /  0mm 0.0 W/m2
22:38 70.5 °F /  21.4 °C 58.1 °F /  14.5 °C 29.80in /  1009hPa East 0.9mph /  1.4km/h 2.0mph /  3.2km/h 65% 0.00in /  0mm 0.0 W/m2
22:44 70.3 °F /  21.3 °C 58.1 °F /  14.5 °C 29.80in /  1009hPa WNW 0.9mph /  1.4km/h 6.0mph /  9.7km/h 65% 0.00in /  0mm 0.0 W/m2
22:50 70.0 °F /  21.1 °C 57.7 °F /  14.3 °C 29.81in /  1009.4hPa SE 0.9mph /  1.4km/h 6.0mph /  9.7km/h 65% 0.00in /  0mm 0.0 W/m2
22:55 69.8 °F /  21 °C 57.0 °F /  13.9 °C 29.82in /  1009.7hPa East 4.0mph /  6.4km/h 6.0mph /  9.7km/h 64% 0.00in /  0mm 0.0 W/m2
23:04 70.0 °F /  21.1 °C 53.1 °F /  11.7 °C 29.82in /  1009.7hPa ESE 6.0mph /  9.7km/h 13.0mph /  20.9km/h 55% 0.00in /  0mm 0.0 W/m2
23:14 70.2 °F /  21.2 °C 53.8 °F /  12.1 °C 29.82in /  1009.7hPa SSE 6.0mph /  9.7km/h 12.0mph /  19.3km/h 56% 0.00in /  0mm 0.0 W/m2
23:22 68.5 °F /  20.3 °C 54.5 °F /  12.5 °C 29.81in /  1009.4hPa SSW 0.9mph /  1.4km/h 5.0mph /  8km/h 61% 0.02in /  0.51mm 0.0 W/m2
23:32 66.6 °F /  19.2 °C 56.5 °F /  13.6 °C 29.80in /  1009hPa NNE 0.9mph /  1.4km/h 3.0mph /  4.8km/h 70% 0.02in /  0.51mm 0.0 W/m2
23:37 65.8 °F /  18.8 °C 57.4 °F /  14.1 °C 29.80in /  1009hPa Calm   3.0mph /  4.8km/h 74% 0.02in /  0.51mm 0.0 W/m2
23:42 65.1 °F /  18.4 °C 56.7 °F /  13.7 °C 29.80in /  1009hPa Calm   1.0mph /  1.6km/h 74% 0.02in /  0.51mm 0.0 W/m2
23:50 64.6 °F /  18.1 °C 57.2 °F /  14 °C 29.80in /  1009hPa Calm   2.0mph /  3.2km/h 77% 0.02in /  0.51mm 0.0 W/m2
Olympia, Windhoek, Namibia
Compliments of Weather Underground - 3 mb